チェンナイ の空港の天気 - METARとTAF

チェンナイ国際空港 ( VOMM / MAA ) - インド チェンナイ
飛行場実況気象(Metar)
観測時間05/27 17:00 IST (05/27 11:30 UTC)
風向・風速南東 5m/s
視程7000m
天気現象
少しの雲 雲底高度 610m
気温34℃
湿度60%
気圧1001hPa
METARVOMM 271130Z 13010KT 7000 FEW020 34/25 Q1001 NOSIG
過去の天気等 Google飛行場航空写真 Wunderground天気予報

過去48時間のMETAR

飛行場予報(TAF)
発表時間: 5/27 16:30 IST (5/27 11:00 UTC)
予報対象時間: 27日17時 IST ~ 28日23時 IST
風向・風速東南東 5m/s
視程6000m
少しの雲 雲底高度 610m
全天の4割程度の雲 雲底高度 3050m
28日2時 IST ~ 28日3時 IST に徐々に
風向・風速南 3m/s
28日5時 IST ~ 28日6時 IST に徐々に
風向・風速西南西 3m/s
28日8時 IST ~ 28日9時 IST に徐々に
風向・風速南 3m/s
28日17時 IST ~ 28日18時 IST に徐々に
風向・風速東南東 5m/s
TAF VOMM 271100Z 2712/2818 12010KT 6000 FEW020 SCT100
BECMG 2721/2722 18005KT
BECMG 2800/2801 25005KT
BECMG 2803/2804 18005KT
BECMG 2812/2813 12010KT